Leo Star I — ELXC6 — position and weather

sailwx.info

Track history (hours):
 
Tides and Currents Weather Stations Pressure Air Temp Water Temp Dewpoint Dewpoint Depression Visibility Wind Speed Wind Dir Waves Ship Positions

Leo Star I

Last reported at 2014-Sep-21 09:33 UTC. Time now 2014-Sep-21 10:07 UTC.
Position N 36°41' E 012°37'.

Length 157 m; draft 8.6 m.

Type: Cargo ship. MMSI: 636015065.

Date/timePositionNaut miles runAvg speedWind from/ knotsBaromVisibWave heightAir tempDewpointWater temp
2014-Sep-21 09:33N 36°41' E 012°37'1212.3
2014-Sep-21 08:33N 36°32' E 012°47'1212.0
2014-Sep-21 07:33N 36°24' E 012°57'1212.3
2014-Sep-21 06:33N 36°15' E 013°08'1312.6
2014-Sep-21 05:33N 36°05' E 013°18'1312.6
2014-Sep-21 04:33N 35°56' E 013°29'1312.7
2014-Sep-21 03:33N 35°47' E 013°40'1312.7
2014-Sep-21 02:33N 35°38' E 013°50'1312.5
2014-Sep-21 01:33N 35°29' E 014°01'1212.5
2014-Sep-21 00:33N 35°20' E 014°12'1212.2
2014-Sep-20 23:33N 35°10' E 014°22'1212.1
2014-Sep-20 22:33N 35°01' E 014°32'1212.3
2014-Sep-20 21:33N 34°53' E 014°42'1212.3
2014-Sep-20 20:33N 34°44' E 014°52'1212.4
2014-Sep-20 19:33N 34°34' E 015°02'1212.3
2014-Sep-20 18:33N 34°25' E 015°12'1212.5
2014-Sep-20 17:33N 34°16' E 015°23'1312.5
2014-Sep-20 16:33N 34°07' E 015°33'1312.5
2014-Sep-20 15:33N 33°58' E 015°43'1212.3
2014-Sep-20 14:33N 33°49' E 015°53'1211.9
2014-Sep-20 13:33N 33°40' E 016°03'1211.8
2014-Sep-20 12:33N 33°32' E 016°13'1212.1
2014-Sep-20 11:33N 33°23' E 016°23'1212.3
2014-Sep-20 10:33N 33°14' E 016°33'1312.4
2014-Sep-20 09:33N 33°05' E 016°43'1212.6
2014-Sep-20 08:33N 32°55' E 016°53'  
2014-Sep-16 16:30N 30°25' E 019°36'  
Track history (hours):
 
Tides and Currents Weather Stations Pressure Air Temp Water Temp Dewpoint Dewpoint Depression Visibility Wind Speed Wind Dir Waves Ship Positions

Leo Star I

Last reported at 2014-Sep-21 09:33 UTC. Time now 2014-Sep-21 10:07 UTC.
Position N 36°41' E 012°37'.

Length 157 m; draft 8.6 m.

Type: Cargo ship. MMSI: 636015065.

Date/timePositionNaut miles runAvg speedWind from/ knotsBaromVisibWave heightAir tempDewpointWater temp
2014-Sep-21 09:33N 36°41' E 012°37'1212.3
2014-Sep-21 08:33N 36°32' E 012°47'1212.0
2014-Sep-21 07:33N 36°24' E 012°57'1212.3
2014-Sep-21 06:33N 36°15' E 013°08'1312.6
2014-Sep-21 05:33N 36°05' E 013°18'1312.6
2014-Sep-21 04:33N 35°56' E 013°29'1312.7
2014-Sep-21 03:33N 35°47' E 013°40'1312.7
2014-Sep-21 02:33N 35°38' E 013°50'1312.5
2014-Sep-21 01:33N 35°29' E 014°01'1212.5
2014-Sep-21 00:33N 35°20' E 014°12'1212.2
2014-Sep-20 23:33N 35°10' E 014°22'1212.1
2014-Sep-20 22:33N 35°01' E 014°32'1212.3
2014-Sep-20 21:33N 34°53' E 014°42'1212.3
2014-Sep-20 20:33N 34°44' E 014°52'1212.4
2014-Sep-20 19:33N 34°34' E 015°02'1212.3
2014-Sep-20 18:33N 34°25' E 015°12'1212.5
2014-Sep-20 17:33N 34°16' E 015°23'1312.5
2014-Sep-20 16:33N 34°07' E 015°33'1312.5
2014-Sep-20 15:33N 33°58' E 015°43'1212.3
2014-Sep-20 14:33N 33°49' E 015°53'1211.9
2014-Sep-20 13:33N 33°40' E 016°03'1211.8
2014-Sep-20 12:33N 33°32' E 016°13'1212.1
2014-Sep-20 11:33N 33°23' E 016°23'1212.3
2014-Sep-20 10:33N 33°14' E 016°33'1312.4
2014-Sep-20 09:33N 33°05' E 016°43'1212.6
2014-Sep-20 08:33N 32°55' E 016°53'  
2014-Sep-16 16:30N 30°25' E 019°36'  

Dump ship's entire track history